createdAt,value
2022-08-17T00:00:07.022Z,61.43
2022-08-17T00:01:10.897Z,61.34
2022-08-17T00:02:25.587Z,61.31
2022-08-17T00:03:17.567Z,61.35
2022-08-17T00:04:19.564Z,61.39
2022-08-17T00:05:21.462Z,61.38
2022-08-17T00:06:23.616Z,61.37
2022-08-17T00:07:25.485Z,61.32
2022-08-17T00:08:27.375Z,61.31
2022-08-17T00:09:29.209Z,61.36
2022-08-17T00:10:32.488Z,61.35
2022-08-17T00:11:34.424Z,61.34
2022-08-17T00:12:43.465Z,61.34
2022-08-17T00:13:39.993Z,61.27
2022-08-17T00:14:41.838Z,61.29
2022-08-17T00:15:43.662Z,61.22
2022-08-17T00:16:55.348Z,61.26
2022-08-17T00:17:49.385Z,61.38
2022-08-17T00:19:06.413Z,61.42
2022-08-17T00:19:54.927Z,61.43
2022-08-17T00:20:56.860Z,61.49
2022-08-17T00:22:31.288Z,61.57
2022-08-17T00:23:02.353Z,61.59
2022-08-17T00:24:04.311Z,61.60
2022-08-17T00:25:06.154Z,61.62
2022-08-17T00:26:08.713Z,61.66
2022-08-17T00:27:10.561Z,61.68
2022-08-17T00:28:12.395Z,61.63
2022-08-17T00:29:19.521Z,61.65
2022-08-17T00:30:18.663Z,61.65
2022-08-17T00:31:20.504Z,61.70
2022-08-17T00:33:13.920Z,61.77
2022-08-17T00:33:26.343Z,61.80
2022-08-17T00:34:28.414Z,61.83
2022-08-17T00:35:32.072Z,61.85
2022-08-17T00:36:34.234Z,61.86
2022-08-17T00:37:36.067Z,61.85
2022-08-17T00:38:37.940Z,61.84
2022-08-17T00:39:39.874Z,61.76
2022-08-17T00:40:44.893Z,61.72
2022-08-17T00:41:46.221Z,61.77
2022-08-17T00:42:48.135Z,61.81
2022-08-17T00:43:50.129Z,61.81
2022-08-17T00:44:51.990Z,61.83
2022-08-17T00:45:53.829Z,61.82
2022-08-17T00:46:55.912Z,61.84
2022-08-17T00:47:57.761Z,61.83
2022-08-17T00:48:59.614Z,61.83
2022-08-17T00:50:01.481Z,61.87
2022-08-17T00:51:03.340Z,61.86
2022-08-17T00:52:05.213Z,61.85
2022-08-17T00:53:08.860Z,61.83
2022-08-17T00:54:10.683Z,61.83
2022-08-17T00:55:12.899Z,61.81
2022-08-17T00:56:15.156Z,61.81
2022-08-17T00:57:16.990Z,61.81
2022-08-17T00:58:18.870Z,61.77
2022-08-17T00:59:22.517Z,61.75
2022-08-17T01:00:26.196Z,61.67
2022-08-17T01:01:28.504Z,61.68
2022-08-17T01:02:30.399Z,61.70
2022-08-17T01:03:34.160Z,61.70
2022-08-17T01:04:36.036Z,61.74
2022-08-17T01:05:37.908Z,61.76
2022-08-17T01:06:41.664Z,61.80
2022-08-17T01:07:43.588Z,61.77
2022-08-17T01:08:45.471Z,61.75
2022-08-17T01:09:47.344Z,61.74
2022-08-17T01:10:57.375Z,61.74
2022-08-17T01:11:53.181Z,61.65
2022-08-17T01:12:55.020Z,61.51
2022-08-17T01:13:56.860Z,61.57
2022-08-17T01:14:58.696Z,61.66
2022-08-17T01:16:00.582Z,61.66
2022-08-17T01:17:02.430Z,61.67
2022-08-17T01:18:04.261Z,61.70
2022-08-17T01:19:06.097Z,61.70
2022-08-17T01:20:08.208Z,61.66
2022-08-17T01:21:10.097Z,61.80
2022-08-17T01:22:11.934Z,61.80
2022-08-17T01:23:20.451Z,61.69
2022-08-17T01:24:17.524Z,61.58
2022-08-17T01:25:19.360Z,61.62
2022-08-17T01:26:22.559Z,61.64
2022-08-17T01:27:24.403Z,61.68
2022-08-17T01:28:40.711Z,61.65
2022-08-17T01:29:29.889Z,61.66
2022-08-17T01:30:58.722Z,61.69
2022-08-17T01:31:36.140Z,61.70
2022-08-17T01:32:37.984Z,61.66
2022-08-17T01:33:39.813Z,61.65
2022-08-17T01:34:43.497Z,61.61
2022-08-17T01:35:45.612Z,61.55
2022-08-17T01:36:47.602Z,61.58
2022-08-17T01:37:49.441Z,61.56
2022-08-17T01:38:51.282Z,61.59
2022-08-17T01:39:53.211Z,61.56
2022-08-17T01:40:57.064Z,61.57
2022-08-17T01:41:58.846Z,61.60
2022-08-17T01:43:00.680Z,61.54
2022-08-17T01:44:02.527Z,61.55
2022-08-17T01:45:04.376Z,61.52
2022-08-17T01:46:06.314Z,61.56
2022-08-17T01:47:08.185Z,61.56
2022-08-17T01:48:10.051Z,61.46
2022-08-17T01:49:11.890Z,61.63
2022-08-17T01:50:15.250Z,61.64
2022-08-17T01:51:17.161Z,61.66
2022-08-17T01:52:19.025Z,61.67
2022-08-17T01:53:20.869Z,61.64
2022-08-17T01:54:22.716Z,61.83
2022-08-17T01:55:27.355Z,61.83
2022-08-17T01:56:28.507Z,61.63
2022-08-17T01:57:30.286Z,61.59
2022-08-17T01:58:32.121Z,61.55
2022-08-17T01:59:33.969Z,61.57
2022-08-17T02:00:47.254Z,61.57
2022-08-17T02:01:40.104Z,61.51
2022-08-17T02:02:41.938Z,61.51
2022-08-17T02:03:56.170Z,61.55
2022-08-17T02:04:47.423Z,61.48
2022-08-17T02:05:49.240Z,61.40
2022-08-17T02:06:53.265Z,61.39
2022-08-17T02:08:00.267Z,61.33
2022-08-17T02:09:02.672Z,61.25
2022-08-17T02:10:02.315Z,61.25
2022-08-17T02:11:04.142Z,61.30
2022-08-17T02:12:39.105Z,61.31
2022-08-17T02:13:11.497Z,61.29
2022-08-17T02:14:13.307Z,61.30
2022-08-17T02:15:15.149Z,61.36
2022-08-17T02:16:20.145Z,61.53
2022-08-17T02:17:21.972Z,61.43
2022-08-17T02:18:23.831Z,61.43
2022-08-17T02:19:25.676Z,61.47
2022-08-17T02:20:42.018Z,61.47
2022-08-17T02:21:31.568Z,61.41
2022-08-17T02:22:33.423Z,61.31
2022-08-17T02:23:35.306Z,61.26
2022-08-17T02:25:00.928Z,61.28
2022-08-17T02:25:40.769Z,61.32
2022-08-17T02:26:42.914Z,61.35
2022-08-17T02:27:44.748Z,61.35
2022-08-17T02:28:46.618Z,61.37
2022-08-17T02:29:48.444Z,61.42
2022-08-17T02:31:01.127Z,61.44
2022-08-17T02:31:54.035Z,61.46
2022-08-17T02:32:55.862Z,61.49
2022-08-17T02:34:03.452Z,61.42
2022-08-17T02:35:02.563Z,61.45
2022-08-17T02:36:04.501Z,61.46
2022-08-17T02:37:06.360Z,61.48
2022-08-17T02:38:08.255Z,61.48
2022-08-17T02:39:10.146Z,61.47
2022-08-17T02:40:12.354Z,61.42
2022-08-17T02:41:15.005Z,61.41
2022-08-17T02:42:16.875Z,61.44
2022-08-17T02:43:18.730Z,61.42
2022-08-17T02:44:39.332Z,61.45
2022-08-17T02:45:24.318Z,61.46
2022-08-17T02:46:26.280Z,61.46
2022-08-17T02:47:28.128Z,61.46
2022-08-17T02:48:31.611Z,61.52
2022-08-17T02:49:33.664Z,61.55
2022-08-17T02:50:35.631Z,61.54
2022-08-17T02:51:37.457Z,61.53
2022-08-17T02:52:42.753Z,61.55
2022-08-17T02:53:42.995Z,61.54
2022-08-17T02:54:44.890Z,61.55
2022-08-17T02:55:46.710Z,61.54
2022-08-17T02:56:48.688Z,61.57
2022-08-17T02:57:50.541Z,61.53
2022-08-17T02:58:52.366Z,61.56
2022-08-17T02:59:54.245Z,61.53
2022-08-17T03:00:56.197Z,61.55
2022-08-17T03:01:59.114Z,61.52
2022-08-17T03:03:00.999Z,61.51
2022-08-17T03:04:02.852Z,61.48
2022-08-17T03:05:04.704Z,61.48
2022-08-17T03:06:06.741Z,61.52
2022-08-17T03:07:08.587Z,61.54
2022-08-17T03:08:13.184Z,61.56
2022-08-17T03:09:14.132Z,61.66
2022-08-17T03:10:16.128Z,61.71
2022-08-17T03:11:17.995Z,61.74
2022-08-17T03:12:19.850Z,61.72
2022-08-17T03:13:21.703Z,61.74
2022-08-17T03:14:26.272Z,61.80
2022-08-17T03:15:27.295Z,61.79
2022-08-17T03:16:29.664Z,61.73
2022-08-17T03:17:31.814Z,61.65
2022-08-17T03:18:33.671Z,61.65
2022-08-17T03:19:35.544Z,61.72
2022-08-17T03:20:39.328Z,61.75
2022-08-17T03:21:41.456Z,61.78
2022-08-17T03:22:48.119Z,61.96
2022-08-17T03:23:48.978Z,61.96
2022-08-17T03:24:52.738Z,61.94
2022-08-17T03:25:55.217Z,61.93
2022-08-17T03:26:57.605Z,61.97
2022-08-17T03:27:59.443Z,62.04
2022-08-17T03:29:01.275Z,62.15
2022-08-17T03:30:03.210Z,62.15
2022-08-17T03:31:05.086Z,62.22
2022-08-17T03:32:06.945Z,62.22
2022-08-17T03:33:08.777Z,62.25
2022-08-17T03:34:10.611Z,62.26
2022-08-17T03:35:12.489Z,62.33
2022-08-17T03:36:16.571Z,62.40
2022-08-17T03:37:18.435Z,62.43
2022-08-17T03:38:20.306Z,62.50
2022-08-17T03:39:23.172Z,62.54
2022-08-17T03:40:34.401Z,62.68
2022-08-17T03:41:30.469Z,62.68
2022-08-17T03:42:32.959Z,62.76
2022-08-17T03:43:34.895Z,62.81
2022-08-17T03:44:36.769Z,62.79
2022-08-17T03:45:38.616Z,62.83
2022-08-17T03:46:40.822Z,62.92
2022-08-17T03:47:42.703Z,62.96
2022-08-17T03:48:45.376Z,62.98
2022-08-17T03:49:47.199Z,63.03
2022-08-17T03:50:49.140Z,63.08
2022-08-17T03:51:51.028Z,62.92
2022-08-17T03:52:52.869Z,62.92
2022-08-17T03:53:54.738Z,63.18
2022-08-17T03:54:56.608Z,63.22
2022-08-17T03:55:58.446Z,63.22
2022-08-17T03:57:00.443Z,63.27
2022-08-17T03:58:02.516Z,63.32
2022-08-17T03:59:04.347Z,63.32
2022-08-17T04:00:07.094Z,63.37
2022-08-17T04:01:08.973Z,63.40
2022-08-17T04:02:11.012Z,63.40
2022-08-17T04:03:12.963Z,63.40
2022-08-17T04:04:14.797Z,63.40
2022-08-17T04:05:16.645Z,63.43
2022-08-17T04:06:20.289Z,63.50
2022-08-17T04:07:22.155Z,63.53
2022-08-17T04:08:23.984Z,63.57
2022-08-17T04:09:25.858Z,63.63
2022-08-17T04:10:27.892Z,63.67
2022-08-17T04:11:31.612Z,63.71
2022-08-17T04:12:33.494Z,63.72
2022-08-17T04:13:35.380Z,63.71
2022-08-17T04:14:51.811Z,63.70
2022-08-17T04:15:40.926Z,63.69
2022-08-17T04:16:42.790Z,63.67
2022-08-17T04:17:44.659Z,63.60
2022-08-17T04:18:46.534Z,63.64
2022-08-17T04:19:48.392Z,63.68
2022-08-17T04:20:50.373Z,63.67
2022-08-17T04:21:52.244Z,63.65
2022-08-17T04:22:54.437Z,63.63
2022-08-17T04:23:57.721Z,63.64
2022-08-17T04:24:59.593Z,63.65
2022-08-17T04:26:01.440Z,63.63
2022-08-17T04:27:03.294Z,63.60
2022-08-17T04:28:05.207Z,63.58
2022-08-17T04:29:08.895Z,63.59
2022-08-17T04:30:11.365Z,63.63
2022-08-17T04:31:13.237Z,63.61
2022-08-17T04:32:15.094Z,63.62
2022-08-17T04:33:17.266Z,63.60
2022-08-17T04:34:19.869Z,63.60
2022-08-17T04:35:21.893Z,63.55
2022-08-17T04:36:25.530Z,63.51
2022-08-17T04:37:27.397Z,63.47
2022-08-17T04:38:29.250Z,63.52
2022-08-17T04:39:33.757Z,63.51
2022-08-17T04:40:34.838Z,63.44
2022-08-17T04:41:36.670Z,63.47
2022-08-17T04:42:38.579Z,63.47
2022-08-17T04:43:40.444Z,63.44
2022-08-17T04:44:42.302Z,63.43
2022-08-17T04:45:55.303Z,63.33
2022-08-17T04:46:47.909Z,63.37
2022-08-17T04:47:49.779Z,63.40
2022-08-17T04:48:51.684Z,63.43
2022-08-17T04:49:53.548Z,63.37
2022-08-17T04:50:55.676Z,63.31
2022-08-17T04:52:01.224Z,63.35
2022-08-17T04:53:01.512Z,63.35
2022-08-17T04:54:03.576Z,63.35
2022-08-17T04:55:05.440Z,63.33
2022-08-17T04:56:08.018Z,63.37
2022-08-17T04:57:11.682Z,63.35
2022-08-17T04:58:13.633Z,63.35
2022-08-17T04:59:15.508Z,63.33
2022-08-17T05:00:19.114Z,63.34
2022-08-17T05:01:23.589Z,63.26
2022-08-17T05:02:24.596Z,63.11
2022-08-17T05:03:26.417Z,63.13
2022-08-17T05:04:34.060Z,63.09
2022-08-17T05:05:31.961Z,63.09
2022-08-17T05:06:34.515Z,63.16
2022-08-17T05:07:36.359Z,63.12
2022-08-17T05:08:38.197Z,63.13
2022-08-17T05:09:40.070Z,63.08
2022-08-17T05:10:45.278Z,63.09
2022-08-17T05:11:45.693Z,63.05
2022-08-17T05:12:47.562Z,63.02
2022-08-17T05:13:49.461Z,62.91
2022-08-17T05:14:51.362Z,62.92
2022-08-17T05:15:53.224Z,62.90
2022-08-17T05:16:55.186Z,62.91
2022-08-17T05:17:57.021Z,62.88
2022-08-17T05:18:58.866Z,62.87
2022-08-17T05:20:00.765Z,62.91
2022-08-17T05:21:02.615Z,62.85
2022-08-17T05:22:04.497Z,62.83
2022-08-17T05:23:06.356Z,62.76
2022-08-17T05:24:17.658Z,62.66
2022-08-17T05:25:11.939Z,62.58
2022-08-17T05:26:26.256Z,62.21
2022-08-17T05:27:19.482Z,62.21
2022-08-17T05:28:27.342Z,62.17
2022-08-17T05:29:35.277Z,62.10
2022-08-17T05:30:30.022Z,62.02
2022-08-17T05:31:31.903Z,61.87
2022-08-17T05:32:39.145Z,61.79
2022-08-17T05:33:39.586Z,61.68
2022-08-17T05:34:41.041Z,61.67
2022-08-17T05:35:42.947Z,61.59
2022-08-17T05:36:44.906Z,61.49
2022-08-17T05:37:46.743Z,61.25
2022-08-17T05:38:48.607Z,61.13
2022-08-17T05:39:50.461Z,60.85
2022-08-17T05:40:52.441Z,60.75
2022-08-17T05:41:54.304Z,60.70
2022-08-17T05:42:56.159Z,60.58
2022-08-17T05:43:58.009Z,60.34
2022-08-17T05:44:59.903Z,60.31
2022-08-17T05:46:01.889Z,60.24
2022-08-17T05:47:03.738Z,60.14
2022-08-17T05:48:05.607Z,60.06
2022-08-17T05:49:07.432Z,60.09
2022-08-17T05:50:10.168Z,60.08
2022-08-17T05:51:12.140Z,59.90
2022-08-17T05:52:14.015Z,59.70
2022-08-17T05:53:17.648Z,59.75
2022-08-17T05:54:19.487Z,59.77
2022-08-17T05:55:21.361Z,59.69
2022-08-17T05:56:30.432Z,59.60
2022-08-17T05:57:27.416Z,59.44
2022-08-17T05:58:29.156Z,59.14
2022-08-17T05:59:31.013Z,59.15
2022-08-17T06:00:33.186Z,59.21
2022-08-17T06:01:35.824Z,59.06
2022-08-17T06:02:37.844Z,58.96
2022-08-17T06:03:40.259Z,58.99
2022-08-17T06:04:42.695Z,58.96
2022-08-17T06:05:44.615Z,59.00
2022-08-17T06:06:46.644Z,58.80
2022-08-17T06:07:48.502Z,58.60
2022-08-17T06:08:51.526Z,58.77
2022-08-17T06:09:53.746Z,58.59
2022-08-17T06:10:55.672Z,58.53
2022-08-17T06:11:58.938Z,58.67
2022-08-17T06:13:00.758Z,58.55
2022-08-17T06:14:02.625Z,58.40
2022-08-17T06:15:04.476Z,58.61
2022-08-17T06:16:28.144Z,58.79
2022-08-17T06:17:10.194Z,58.71
2022-08-17T06:18:15.909Z,58.67
2022-08-17T06:19:15.681Z,58.69
2022-08-17T06:20:19.327Z,58.54
2022-08-17T06:21:21.171Z,58.35
2022-08-17T06:22:24.866Z,58.54
2022-08-17T06:23:26.698Z,58.61
2022-08-17T06:24:28.530Z,58.52
2022-08-17T06:25:30.345Z,58.04
2022-08-17T06:26:38.503Z,57.97
2022-08-17T06:27:35.973Z,58.26
2022-08-17T06:28:37.803Z,58.37
2022-08-17T06:29:39.661Z,58.01
2022-08-17T06:31:00.239Z,57.84
2022-08-17T06:31:45.304Z,57.97
2022-08-17T06:32:47.264Z,58.19
2022-08-17T06:33:49.142Z,58.26
2022-08-17T06:34:50.991Z,58.26
2022-08-17T06:35:52.820Z,58.24
2022-08-17T06:36:54.973Z,58.34
2022-08-17T06:37:57.360Z,58.46
2022-08-17T06:38:59.229Z,58.29
2022-08-17T06:40:01.167Z,58.41
2022-08-17T06:41:03.061Z,58.54
2022-08-17T06:42:04.895Z,57.64
2022-08-17T06:43:07.505Z,57.86
2022-08-17T06:44:09.467Z,58.17
2022-08-17T06:45:11.322Z,57.68
2022-08-17T06:46:13.692Z,57.48
2022-08-17T06:47:15.619Z,57.49
2022-08-17T06:48:19.293Z,57.08
2022-08-17T06:49:21.133Z,57.06
2022-08-17T06:50:23.470Z,57.04
2022-08-17T06:51:25.321Z,56.71
2022-08-17T06:52:45.915Z,56.28
2022-08-17T06:53:30.884Z,56.35
2022-08-17T06:54:32.719Z,56.32
2022-08-17T06:55:38.150Z,56.54
2022-08-17T06:56:53.568Z,56.93
2022-08-17T06:57:41.983Z,57.11
2022-08-17T06:58:43.877Z,56.74
2022-08-17T06:59:55.515Z,56.81
2022-08-17T07:00:49.802Z,56.80
2022-08-17T07:01:51.583Z,56.90
2022-08-17T07:02:55.324Z,57.05
2022-08-17T07:03:57.222Z,57.13
2022-08-17T07:04:59.094Z,57.03
2022-08-17T07:06:00.917Z,56.67
2022-08-17T07:07:02.749Z,56.43
2022-08-17T07:08:04.638Z,56.12
2022-08-17T07:09:06.490Z,56.15
2022-08-17T07:10:08.635Z,56.70
2022-08-17T07:11:10.508Z,56.85
2022-08-17T07:12:12.348Z,57.02
2022-08-17T07:13:14.205Z,56.47
2022-08-17T07:14:17.459Z,56.74
2022-08-17T07:15:19.461Z,56.63
2022-08-17T07:16:22.038Z,56.26
2022-08-17T07:17:46.461Z,56.42
2022-08-17T07:18:27.583Z,56.38
2022-08-17T07:19:29.459Z,56.65
2022-08-17T07:20:31.387Z,56.80
2022-08-17T07:21:33.219Z,56.35
2022-08-17T07:22:53.525Z,56.34
2022-08-17T07:23:38.721Z,56.48
2022-08-17T07:24:40.601Z,56.48
2022-08-17T07:25:42.436Z,56.32
2022-08-17T07:26:44.361Z,56.73
2022-08-17T07:27:46.216Z,56.57
2022-08-17T07:28:48.279Z,56.62
2022-08-17T07:29:50.206Z,55.94
2022-08-17T07:30:52.189Z,54.68
2022-08-17T07:31:54.054Z,54.31
2022-08-17T07:32:57.555Z,54.02
2022-08-17T07:34:00.032Z,54.58
2022-08-17T07:35:01.931Z,54.36
2022-08-17T07:36:04.070Z,53.89
2022-08-17T07:37:05.904Z,54.84
2022-08-17T07:38:25.682Z,55.06
2022-08-17T07:39:11.423Z,54.85
2022-08-17T07:40:15.122Z,54.69
2022-08-17T07:41:17.299Z,54.65
2022-08-17T07:42:19.358Z,54.68
2022-08-17T07:43:21.926Z,55.22
2022-08-17T07:44:24.996Z,54.86
2022-08-17T07:45:26.870Z,55.19
2022-08-17T07:46:29.155Z,54.79
2022-08-17T07:47:31.030Z,53.79
2022-08-17T07:48:32.914Z,54.53
2022-08-17T07:49:34.863Z,54.26
2022-08-17T07:50:36.962Z,53.64
2022-08-17T07:51:39.034Z,55.06
2022-08-17T07:52:50.733Z,55.40
2022-08-17T07:53:44.540Z,54.83
2022-08-17T07:54:46.431Z,54.20
2022-08-17T07:55:48.333Z,53.73
2022-08-17T07:56:50.287Z,52.76
2022-08-17T07:57:52.249Z,52.63
2022-08-17T07:58:54.245Z,53.01
2022-08-17T07:59:56.113Z,53.32
2022-08-17T08:00:58.241Z,53.15
2022-08-17T08:02:00.079Z,52.66
2022-08-17T08:03:02.004Z,52.14
2022-08-17T08:04:03.891Z,52.73
2022-08-17T08:05:08.890Z,52.39
2022-08-17T08:06:11.739Z,52.26
2022-08-17T08:07:13.599Z,51.79
2022-08-17T08:08:15.449Z,51.93
2022-08-17T08:09:18.090Z,52.28
2022-08-17T08:10:20.234Z,52.35
2022-08-17T08:11:22.103Z,52.27
2022-08-17T08:12:23.963Z,52.68
2022-08-17T08:13:27.638Z,52.96
2022-08-17T08:14:29.540Z,52.98
2022-08-17T08:15:32.956Z,53.28
2022-08-17T08:16:34.860Z,53.10
2022-08-17T08:17:36.707Z,53.10
2022-08-17T08:18:54.209Z,53.04
2022-08-17T08:19:42.241Z,52.83
2022-08-17T08:20:53.157Z,52.92
2022-08-17T08:21:47.920Z,53.07
2022-08-17T08:22:49.854Z,53.12
2022-08-17T08:23:52.002Z,53.28
2022-08-17T08:24:53.893Z,53.42
2022-08-17T08:25:55.742Z,53.01
2022-08-17T08:26:58.218Z,52.83
2022-08-17T08:28:00.100Z,52.87
2022-08-17T08:29:01.958Z,52.49
2022-08-17T08:30:03.913Z,52.65
2022-08-17T08:31:05.751Z,52.87
2022-08-17T08:32:07.684Z,52.74
2022-08-17T08:33:09.558Z,52.49
2022-08-17T08:34:53.207Z,52.51
2022-08-17T08:35:15.054Z,52.63
2022-08-17T08:37:14.226Z,52.47
2022-08-17T08:37:32.599Z,52.39
2022-08-17T08:38:24.902Z,52.09
2022-08-17T08:39:27.236Z,51.82
2022-08-17T08:40:29.248Z,51.56
2022-08-17T08:41:31.111Z,51.84
2022-08-17T08:42:32.988Z,52.72
2022-08-17T08:43:34.892Z,52.93
2022-08-17T08:44:59.822Z,52.94
2022-08-17T08:45:40.413Z,53.44
2022-08-17T08:46:42.372Z,53.43
2022-08-17T08:47:44.301Z,53.29
2022-08-17T08:48:56.921Z,53.83
2022-08-17T08:50:05.994Z,53.92
2022-08-17T08:50:53.862Z,53.76
2022-08-17T08:51:55.773Z,53.55
2022-08-17T08:52:57.679Z,52.59
2022-08-17T08:53:59.531Z,51.30
2022-08-17T08:55:01.380Z,51.64
2022-08-17T08:56:03.382Z,52.02
2022-08-17T08:58:31.455Z,52.35
2022-08-17T08:59:13.269Z,52.63
2022-08-17T09:00:15.746Z,52.63
2022-08-17T09:01:17.782Z,52.83
2022-08-17T09:02:19.990Z,52.92
2022-08-17T09:03:36.560Z,53.34
2022-08-17T09:04:26.049Z,53.46
2022-08-17T09:05:27.869Z,53.41
2022-08-17T09:06:38.791Z,53.29
2022-08-17T09:07:34.983Z,52.96
2022-08-17T09:08:36.874Z,52.50
2022-08-17T09:09:39.985Z,52.09
2022-08-17T09:10:42.066Z,52.55
2022-08-17T09:12:02.011Z,52.49
2022-08-17T09:12:47.630Z,52.56
2022-08-17T09:13:54.324Z,52.25
2022-08-17T09:14:53.751Z,52.67
2022-08-17T09:15:55.631Z,53.08
2022-08-17T09:16:57.588Z,53.38
2022-08-17T09:19:00.986Z,53.34
2022-08-17T09:19:04.819Z,53.46
2022-08-17T09:20:07.249Z,53.79
2022-08-17T09:21:10.250Z,54.07
2022-08-17T09:22:13.048Z,54.12
2022-08-17T09:23:15.034Z,53.99
2022-08-17T09:24:16.941Z,54.03
2022-08-17T09:25:20.978Z,54.29
2022-08-17T09:26:23.084Z,53.95
2022-08-17T09:27:26.081Z,53.95
2022-08-17T09:28:27.934Z,53.67
2022-08-17T09:29:30.135Z,53.42
2022-08-17T09:30:32.414Z,53.52
2022-08-17T09:31:34.264Z,53.45
2022-08-17T09:32:36.140Z,53.03
2022-08-17T09:33:37.991Z,52.69
2022-08-17T09:34:39.897Z,52.43
2022-08-17T09:35:43.565Z,52.47
2022-08-17T09:36:45.438Z,52.48
2022-08-17T09:37:47.284Z,52.33
2022-08-17T09:38:49.171Z,52.40
2022-08-17T09:39:51.081Z,52.58
2022-08-17T09:40:53.031Z,52.36
2022-08-17T09:41:54.865Z,52.19
2022-08-17T09:42:56.700Z,52.17
2022-08-17T09:43:58.749Z,52.52
2022-08-17T09:45:00.621Z,52.99
2022-08-17T09:46:02.765Z,52.94
2022-08-17T09:47:04.600Z,52.89
2022-08-17T09:48:06.424Z,52.50
2022-08-17T09:49:08.255Z,51.99
2022-08-17T09:50:10.344Z,51.61
2022-08-17T09:51:12.200Z,51.28
2022-08-17T09:52:14.042Z,51.09
2022-08-17T09:53:15.863Z,50.86
2022-08-17T09:54:38.197Z,50.98
2022-08-17T09:55:21.419Z,51.29
2022-08-17T09:56:23.479Z,50.88
2022-08-17T09:57:30.336Z,50.37
2022-08-17T09:58:29.209Z,50.16
2022-08-17T09:59:34.223Z,50.70
2022-08-17T10:00:35.211Z,50.77
2022-08-17T10:01:37.299Z,50.27
2022-08-17T10:02:39.311Z,50.24
2022-08-17T10:03:41.141Z,50.07
2022-08-17T10:04:42.985Z,49.87
2022-08-17T10:05:44.847Z,49.69
2022-08-17T10:06:46.781Z,49.51
2022-08-17T10:07:48.621Z,49.71
2022-08-17T10:08:50.462Z,49.72
2022-08-17T10:09:52.322Z,49.67
2022-08-17T10:10:56.736Z,49.50
2022-08-17T10:11:57.950Z,49.21
2022-08-17T10:12:59.779Z,49.28
2022-08-17T10:14:01.609Z,49.52
2022-08-17T10:15:08.214Z,49.51
2022-08-17T10:16:09.188Z,49.52
2022-08-17T10:17:11.026Z,49.41
2022-08-17T10:18:12.898Z,49.34
2022-08-17T10:19:14.718Z,49.33
2022-08-17T10:20:17.177Z,49.38
2022-08-17T10:21:19.290Z,49.42
2022-08-17T10:22:34.617Z,49.56
2022-08-17T10:23:24.820Z,49.17
2022-08-17T10:24:26.673Z,48.91
2022-08-17T10:25:48.715Z,48.87
2022-08-17T10:26:40.376Z,48.61
2022-08-17T10:27:36.292Z,48.26
2022-08-17T10:28:38.129Z,48.17
2022-08-17T10:29:47.429Z,48.26
2022-08-17T10:30:43.775Z,48.05
2022-08-17T10:31:45.655Z,48.23
2022-08-17T10:32:47.535Z,48.38
2022-08-17T10:33:49.393Z,47.95
2022-08-17T10:34:51.229Z,47.86
2022-08-17T10:35:53.076Z,47.71
2022-08-17T10:36:56.902Z,47.52
2022-08-17T10:37:59.073Z,47.16
2022-08-17T10:39:00.929Z,47.53
2022-08-17T10:40:02.887Z,47.17
2022-08-17T10:41:04.760Z,47.58
2022-08-17T10:42:06.636Z,47.50
2022-08-17T10:43:08.603Z,47.35
2022-08-17T10:44:39.483Z,47.32
2022-08-17T10:45:14.518Z,47.31
2022-08-17T10:46:31.429Z,47.26
2022-08-17T10:47:21.924Z,47.23
2022-08-17T10:48:24.100Z,46.90
2022-08-17T10:49:25.912Z,46.88
2022-08-17T10:50:27.876Z,46.86
2022-08-17T10:51:29.720Z,46.90
2022-08-17T10:52:31.619Z,47.08
2022-08-17T10:53:33.450Z,47.29
2022-08-17T10:54:35.285Z,47.30
2022-08-17T10:55:37.126Z,47.22
2022-08-17T10:56:39.712Z,46.80
2022-08-17T10:57:41.615Z,46.92
2022-08-17T10:58:43.450Z,47.15
2022-08-17T10:59:45.308Z,46.88
2022-08-17T11:00:47.354Z,46.77
2022-08-17T11:01:49.260Z,46.86
2022-08-17T11:02:51.483Z,46.75
2022-08-17T11:03:53.488Z,46.45
2022-08-17T11:04:55.375Z,46.15
2022-08-17T11:05:57.277Z,46.15
2022-08-17T11:06:59.446Z,46.26
2022-08-17T11:08:01.375Z,46.38
2022-08-17T11:09:03.243Z,46.57
2022-08-17T11:10:05.170Z,46.27
2022-08-17T11:11:07.033Z,46.68
2022-08-17T11:12:08.946Z,46.80
2022-08-17T11:13:10.868Z,46.92
2022-08-17T11:14:12.709Z,46.46
2022-08-17T11:15:14.649Z,46.70
2022-08-17T11:16:16.788Z,46.01
2022-08-17T11:17:18.688Z,45.91
2022-08-17T11:18:21.179Z,45.63
2022-08-17T11:19:23.027Z,45.95
2022-08-17T11:20:25.164Z,46.22
2022-08-17T11:21:26.951Z,46.27
2022-08-17T11:22:33.337Z,45.62
2022-08-17T11:23:32.603Z,45.22
2022-08-17T11:24:34.728Z,44.93
2022-08-17T11:25:36.600Z,44.88
2022-08-17T11:26:38.580Z,44.49
2022-08-17T11:27:40.491Z,44.52
2022-08-17T11:28:42.374Z,44.69
2022-08-17T11:29:44.257Z,44.72
2022-08-17T11:30:46.236Z,44.49
2022-08-17T11:31:48.094Z,44.36
2022-08-17T11:32:54.570Z,44.31
2022-08-17T11:33:53.952Z,43.82
2022-08-17T11:34:55.806Z,43.02
2022-08-17T11:35:57.665Z,42.64
2022-08-17T11:37:00.305Z,42.59
2022-08-17T11:38:02.208Z,42.31
2022-08-17T11:39:04.092Z,42.53
2022-08-17T11:40:06.398Z,43.24
2022-08-17T11:41:08.365Z,43.06
2022-08-17T11:42:10.295Z,43.17
2022-08-17T11:43:12.351Z,42.90
2022-08-17T11:44:14.306Z,42.45
2022-08-17T11:45:31.737Z,42.26
2022-08-17T11:46:20.145Z,42.66
2022-08-17T11:47:24.738Z,42.42
2022-08-17T11:48:29.396Z,42.90
2022-08-17T11:49:31.505Z,43.16
2022-08-17T11:50:33.648Z,43.21
2022-08-17T11:51:35.502Z,42.64
2022-08-17T11:52:37.353Z,42.25
2022-08-17T11:53:40.251Z,41.74
2022-08-17T11:54:42.140Z,41.13
2022-08-17T11:55:45.078Z,40.75
2022-08-17T11:56:47.128Z,40.72
2022-08-17T11:57:49.073Z,40.91
2022-08-17T11:58:50.971Z,39.88
2022-08-17T11:59:52.897Z,40.34
2022-08-17T12:00:55.392Z,40.27
2022-08-17T12:01:57.256Z,40.11
2022-08-17T12:02:59.082Z,40.02
2022-08-17T12:04:00.911Z,40.10
2022-08-17T12:05:02.784Z,40.08
2022-08-17T12:06:04.762Z,40.03
2022-08-17T12:07:06.611Z,39.86
2022-08-17T12:08:08.443Z,39.54
2022-08-17T12:09:10.295Z,39.68
2022-08-17T12:10:12.877Z,40.08
2022-08-17T12:11:14.759Z,40.29
2022-08-17T12:12:16.831Z,40.52
2022-08-17T12:13:18.729Z,40.18
2022-08-17T12:14:26.997Z,40.25
2022-08-17T12:15:24.311Z,40.17
2022-08-17T12:16:28.030Z,39.69
2022-08-17T12:17:41.029Z,38.63
2022-08-17T12:18:33.617Z,37.92
2022-08-17T12:19:35.458Z,38.40
2022-08-17T12:20:37.658Z,38.63
2022-08-17T12:21:39.807Z,37.73
2022-08-17T12:22:41.743Z,38.72
2022-08-17T12:23:44.168Z,39.49
2022-08-17T12:24:46.232Z,39.59
2022-08-17T12:25:48.121Z,39.75
2022-08-17T12:26:50.273Z,40.26
2022-08-17T12:28:06.492Z,41.03
2022-08-17T12:28:55.797Z,41.25
2022-08-17T12:29:59.179Z,41.36
2022-08-17T12:31:01.175Z,41.49
2022-08-17T12:32:03.022Z,41.38
2022-08-17T12:33:05.418Z,41.45
2022-08-17T12:34:07.264Z,41.45
2022-08-17T12:35:09.153Z,41.55
2022-08-17T12:36:12.830Z,41.16
2022-08-17T12:37:14.977Z,41.07
2022-08-17T12:38:31.944Z,41.07
2022-08-17T12:39:21.373Z,41.10
2022-08-17T12:40:23.741Z,41.05
2022-08-17T12:41:25.706Z,40.92
2022-08-17T12:42:27.626Z,40.92
2022-08-17T12:43:29.473Z,41.08
2022-08-17T12:44:31.327Z,41.10
2022-08-17T12:45:33.232Z,41.12
2022-08-17T12:46:35.680Z,41.36
2022-08-17T12:47:37.515Z,41.27
2022-08-17T12:48:39.404Z,41.13
2022-08-17T12:49:43.067Z,41.20
2022-08-17T12:50:45.259Z,41.33
2022-08-17T12:51:47.133Z,41.36
2022-08-17T12:52:49.022Z,41.53
2022-08-17T12:53:51.784Z,41.67
2022-08-17T12:54:55.470Z,41.99
2022-08-17T12:55:57.340Z,42.10
2022-08-17T12:56:59.873Z,41.97
2022-08-17T12:58:01.905Z,41.89
2022-08-17T12:59:04.145Z,42.21
2022-08-17T13:00:06.206Z,42.35
2022-08-17T13:01:08.151Z,42.54
2022-08-17T13:02:10.290Z,42.61
2022-08-17T13:03:12.730Z,42.71
2022-08-17T13:04:14.784Z,42.88
2022-08-17T13:05:16.614Z,43.03
2022-08-17T13:06:19.881Z,43.23
2022-08-17T13:07:21.798Z,43.37
2022-08-17T13:08:23.642Z,43.60
2022-08-17T13:09:30.972Z,43.68
2022-08-17T13:10:32.885Z,43.63
2022-08-17T13:11:33.133Z,43.64
2022-08-17T13:12:35.018Z,43.57
2022-08-17T13:13:36.908Z,43.71
2022-08-17T13:14:38.776Z,43.82
2022-08-17T13:15:44.418Z,43.82
2022-08-17T13:16:44.516Z,43.87
2022-08-17T13:17:46.449Z,43.85
2022-08-17T13:18:48.251Z,43.90
2022-08-17T13:19:50.042Z,43.95
2022-08-17T13:20:52.027Z,43.93
2022-08-17T13:21:53.857Z,43.80
2022-08-17T13:22:56.246Z,43.71